McQueeney, Texas
Current Conditions -  °F | °C
As of 8:51 PM on Wednesday 26 Nov 2014 (Local Time) from KBAZ Reporting Station
Clear Clear  
Wind Chill: 51°   Ceiling: Unl
Heat Index: 51°   Visibility: 10mi
Dew Point: 40°   Wind: 7mph
Humidity: 66%   Direction: 340°NNW
Pressure: 30.27"   Gusts: NA
Location:  29.59°N, 98.03°W
Report Text: KBAZ 270251Z AUTO 34006KT 10SM CLR 11/04 A3027 RMK AO2 SLP249 T01060044 51028
Loading
Personal Weather Stations






























Interactive Weather Map New forecast layout! Learn more

10-Day Weather Forecast

Advertisements
Track Severe Weather on mobile